Date,TemperatureHighF,TemperatureAvgF,TemperatureLowF,DewpointHighF,DewpointAvgF,DewpointLowF,HumidityHigh,HumidityAvg,HumidityLow,PressureMaxIn,PressureMinIn,WindSpeedMaxMPH,WindSpeedAvgMPH,GustSpeedMaxMPH,PrecipitationSumIn
2013-7-11,90,84,78,72,-8,-100,78,66,52,29.93,29.88,4,1,0,0.00
2013-7-12,104,88,74,76,71,66,94,62,32,29.97,29.87,4,1,0,0.00
2013-7-13,87,80,77,71,67,59,78,65,44,29.99,29.88,3,1,8,0.02
2013-7-14,78,73,69,71,67,59,94,82,53,30.02,29.89,3,1,0,0.11
2013-7-15,78,72,68,72,69,66,99,91,77,30.10,29.95,3,1,0,0.16
2013-7-16,93,78,71,75,72,70,99,84,49,30.22,30.07,4,1,0,0.41
2013-7-17,95,81,71,77,72,70,99,77,48,30.22,30.12,4,1,0,0.14
2013-7-18,98,84,73,76,70,66,92,68,39,30.18,29.99,5,1,0,0.00
2013-7-19,81,77,75,75,72,69,91,84,69,30.03,29.93,3,1,0,0.00
2013-7-20,96,81,72,76,72,69,98,78,43,29.98,29.84,4,1,0,0.02
2013-7-21,98,82,73,77,72,63,98,76,40,29.92,29.83,8,2,12,0.00
2013-7-22,98,86,76,76,73,67,95,67,39,29.97,29.85,7,2,11,0.00
2013-7-23,99,88,78,79,73,64,89,63,39,29.97,29.80,6,2,11,0.00
2013-7-24,96,82,73,76,70,66,90,69,44,30.05,29.85,6,2,13,0.03
2013-7-25,97,84,72,78,72,69,93,68,44,30.04,29.96,5,1,6,0.00
2013-7-26,96,83,76,76,73,70,91,72,47,30.02,29.82,14,2,14,0.11
2013-7-27,94,79,71,73,67,61,93,69,37,30.00,29.88,14,4,19,0.00
2013-7-28,97,82,70,71,68,66,89,65,40,29.97,29.84,16,5,22,0.00
2013-7-29,97,85,76,75,71,60,91,64,36,29.98,29.88,19,7,27,0.00
2013-7-30,99,87,78,73,68,59,84,56,40,30.06,29.91,22,7,30,0.00
2013-7-31,105,88,78,73,69,64,77,56,32,30.03,29.88,16,6,21,0.00
2013-8-1,108,90,78,73,71,67,83,56,31,29.97,29.85,18,4,19,0.00
2013-8-2,103,90,78,72,69,64,79,54,30,29.92,29.83,16,6,23,0.00
2013-8-3,104,89,78,72,69,63,75,53,28,29.99,29.89,17,5,20,0.00
2013-8-4,104,89,78,73,70,62,82,56,29,30.04,29.89,14,5,20,0.00
2013-8-5,103,90,81,73,67,62,74,49,27,29.97,29.82,18,6,23,0.00
2013-8-6,103,90,78,71,67,63,76,49,28,29.89,29.75,18,6,25,0.00
2013-8-7,104,90,79,72,68,64,78,51,28,29.87,29.73,20,7,25,0.00
2013-8-8,103,90,79,73,68,64,81,51,29,29.86,29.73,22,6,26,0.00
2013-8-9,107,91,78,70,63,53,68,43,19,29.93,29.80,16,5,20,0.00
2013-8-10,97,86,74,75,70,62,93,61,40,30.02,29.91,12,4,19,0.00
2013-8-11,102,87,76,74,70,60,87,60,28,30.04,29.91,16,4,182,0.00
2013-8-12,99,87,77,73,70,64,83,58,35,30.02,29.89,15,5,19,0.00
2013-8-13,99,84,77,82,71,66,92,66,39,29.99,29.85,20,6,211,0.25
2013-8-14,91,81,75,77,72,68,97,77,57,30.00,29.91,17,6,199,0.32
2013-8-15,83,74,69,69,63,56,82,69,45,30.04,29.96,14,7,0,0.00
2013-8-16,90,77,67,69,63,57,94,64,40,30.05,29.93,14,6,0,0.07
2013-8-17,91,77,63,61,59,54,89,57,33,30.06,29.94,14,5,0,0.00
2013-8-18,97,80,66,68,60,52,86,55,28,30.07,29.96,13,4,0,0.00
2013-8-19,102,83,69,66,61,51,86,51,24,30.04,29.90,12,5,0,0.00
2013-8-20,102,84,70,66,61,54,75,49,26,30.02,29.91,14,4,0,0.00
2013-8-21,101,85,74,69,64,58,79,52,29,30.06,29.95,15,4,0,0.00
2013-8-22,103,87,75,75,67,62,77,54,32,30.06,29.89,16,4,0,0.00
2013-8-23,105,87,76,75,69,61,81,56,29,30.00,29.87,13,4,0,0.00
2013-8-24,105,89,76,74,68,60,79,53,29,30.03,29.93,19,5,0,0.00
2013-8-25,102,87,75,72,67,61,79,53,31,30.12,30.01,18,5,0,0.00
2013-8-26,101,86,74,71,66,58,83,56,29,30.14,30.01,18,6,0,0.00
2013-8-27,95,82,74,72,69,63,92,67,39,30.11,29.98,15,4,0,0.00
2013-8-28,100,86,75,72,67,61,82,56,32,30.07,29.95,15,4,0,0.00
2013-8-29,104,90,75,71,65,59,74,46,28,30.04,29.91,13,3,0,0.00
2013-8-30,108,91,77,72,64,56,68,43,22,29.98,29.83,10,4,0,0.00
2013-8-31,107,91,77,72,66,58,79,47,25,29.88,29.75,12,4,0,0.00
2013-9-1,105,90,79,75,67,62,70,49,27,29.85,29.73,18,5,0,0.00
2013-9-2,98,83,74,78,72,65,96,70,43,29.98,29.82,219,5,0,0.18
2013-9-3,99,86,74,77,66,59,81,54,30,29.96,29.84,11,3,0,0.00
2013-9-4,102,87,74,74,68,62,83,55,32,30.02,29.90,14,6,0,0.00
2013-9-5,105,87,74,73,65,55,73,50,25,30.08,29.96,12,4,0,0.00
2013-9-6,103,87,73,71,64,59,72,49,27,30.06,29.91,10,3,0,0.00
2013-9-7,105,87,76,72,66,58,79,53,27,30.01,29.87,17,4,0,0.00
2013-9-8,103,86,72,71,65,59,84,55,27,29.96,29.84,15,4,0,0.00
2013-9-9,100,86,73,78,66,58,82,54,30,29.98,29.88,18,4,0,0.00
2013-9-10,98,84,72,72,65,55,90,58,27,30.07,29.95,20,5,0,0.00
2013-9-11,98,84,72,72,67,61,81,58,37,30.10,29.96,14,3,0,0.03
2013-9-12,102,85,73,78,68,61,85,60,33,30.04,29.89,11,3,0,0.00
2013-9-13,100,85,74,74,69,62,81,60,34,29.94,29.80,13,5,0,0.01
2013-9-14,96,82,72,69,62,55,70,51,34,29.95,29.85,18,7,0,0.00
2013-9-15,100,83,72,74,62,56,60,50,33,30.00,29.91,11,5,0,0.00
2013-9-16,101,86,74,75,65,58,74,53,29,30.07,29.93,10,3,0,0.00
2013-9-17,97,86,77,70,66,58,68,52,32,30.05,29.91,13,4,0,0.00
2013-9-18,100,86,77,72,66,61,73,53,31,29.99,29.84,15,5,0,0.00
2013-9-19,92,82,74,80,71,63,97,72,50,29.97,29.83,13,4,0,0.25
2013-9-20,74,72,69,74,71,65,101,96,88,29.92,29.80,68,6,0,1.53
2013-9-21,84,71,61,65,53,43,89,57,28,29.94,29.82,14,5,0,0.00
2013-9-22,88,71,58,58,52,45,81,53,28,29.91,29.77,12,4,0,0.00
2013-9-23,91,73,58,61,55,46,86,57,28,29.84,29.71,13,4,0,0.00
2013-9-24,93,78,65,67,57,46,84,54,22,29.89,29.79,14,5,0,0.00
2013-9-25,97,79,63,57,50,43,60,37,21,29.87,29.74,9,3,0,0.00
2013-9-26,99,81,65,61,56,51,66,45,25,29.86,29.76,16,4,0,0.00
2013-9-27,90,79,66,73,66,59,83,64,53,29.91,29.82,18,6,0,0.00
2013-9-28,88,76,65,86,48,0,100,53,12,30.01,29.84,92,5,0,2.01
2013-9-29,83,70,62,55,21,-8,44,16,5,30.01,29.87,11,5,0,0.00
2013-9-30,92,79,64,62,42,-4,44,30,4,29.89,29.77,15,3,0,0.00
2013-10-1,94,80,71,62,13,0,36,7,4,29.91,29.81,12,4,0,0.00
2013-10-2,93,79,72,51,7,-26,25,3,1,29.95,29.83,20,6,0,0.00
2013-10-3,92,80,72,62,16,-27,39,9,1,29.90,29.78,18,6,0,0.00
2013-10-4,90,80,73,66,28,-2,48,20,4,29.89,29.80,18,6,0,0.00
2013-10-5,78,64,50,45,8,-31,53,9,1,30.06,29.83,19,7,0,0.08
2013-10-6,73,60,50,42,20,-3,47,17,9,30.07,29.97,18,6,0,0.00
2013-10-7,81,68,53,46,39,33,60,37,20,30.11,30.01,18,4,0,0.00
2013-10-8,88,67,53,56,46,31,62,48,28,30.08,29.96,11,4,0,0.00
2013-10-9,87,68,54,58,38,-44,60,37,1,30.04,29.94,13,4,0,0.00
2013-10-10,87,72,60,59,42,-41,59,38,1,30.03,29.85,17,5,0,0.00
2013-10-11,86,75,66,65,34,-36,51,27,1,29.92,29.79,22,6,0,0.00
2013-10-12,96,78,71,71,15,-32,55,10,1,30.03,29.84,22,6,0,0.22
2013-10-13,78,71,67,0,0,0,0,0,100,30.17,30.01,15,5,0,0.01
2013-10-14,73,70,68,0,0,0,0,0,100,30.10,29.89,14,6,0,0.60
2013-10-15,79,66,53,0,0,0,0,0,100,30.02,29.80,28,7,0,2.03
2013-10-16,62,55,52,43,9,-30,55,10,2,30.05,29.95,14,5,0,0.20
2013-10-17,74,59,47,50,25,-34,56,29,3,30.09,29.94,8,3,0,0.00
2013-10-18,74,62,52,55,24,-45,58,26,1,30.04,29.85,18,4,0,0.00
2013-10-19,64,52,42,45,18,-52,59,30,1,30.16,30.03,20,6,0,0.00
2013-10-20,73,59,46,48,40,20,61,50,33,30.03,29.83,18,5,0,0.00
2013-10-21,72,61,54,54,26,-41,60,30,1,30.06,29.86,18,5,0,0.00
2013-10-22,74,60,45,50,24,-49,58,29,1,30.11,29.97,15,4,0,0.00
2013-10-23,86,68,51,57,46,19,61,47,24,30.08,29.99,9,3,0,0.00
2013-10-24,82,66,56,55,48,42,62,53,39,30.23,30.01,14,5,0,0.00
2013-10-25,72,58,50,49,40,26,63,52,39,30.36,30.20,26,7,0,0.00
2013-10-26,75,61,52,59,37,-43,58,46,1,30.20,29.99,142,7,0,0.14
2013-10-27,71,62,58,50,10,-39,55,12,1,30.09,29.97,224,3,0,0.00
2013-10-28,79,67,56,58,14,-21,49,11,2,30.07,29.97,12,4,0,0.01
2013-10-29,76,72,69,19,0,-32,12,0,1,30.05,29.96,18,7,0,0.00
2013-10-30,72,68,65,0,0,0,0,0,100,29.99,29.76,32,8,0,0.22
2013-10-31,76,70,64,56,26,0,57,24,15,29.79,29.63,32,11,0,0.01
2013-11-29,83,57,49,35,30,28,50,37,17,29.74,29.72,10,4,18,0.00
2013-12-14,45,38,34,32,28,26,73,68,54,29.68,29.53,20,8,161,0.00
2013-12-15,73,46,32,34,29,25,78,58,20,29.71,29.58,11,4,12,0.00
2013-12-16,79,51,36,38,34,31,82,57,22,29.61,29.51,11,5,17,0.00
2013-12-17,81,54,41,41,37,33,73,54,23,29.65,29.56,9,3,11,0.00
2013-12-18,71,54,42,46,40,36,81,61,32,29.61,29.37,20,6,24,0.00
2013-12-19,72,61,50,62,55,47,94,81,63,29.37,29.11,24,9,32,0.00
2013-12-20,69,57,35,64,53,34,96,88,78,29.22,29.11,20,7,24,0.00
2013-12-21,55,44,34,54,43,33,99,97,95,29.13,28.88,14,4,21,1.17
2013-12-22,47,36,28,47,31,25,98,82,61,29.74,29.13,16,7,18,0.00
2013-12-23,51,34,23,32,27,22,93,77,48,29.91,29.72,8,3,10,0.00
2013-12-24,53,37,24,35,29,22,92,73,47,29.89,29.62,15,4,19,0.00
2013-12-25,61,42,33,42,34,29,87,75,50,29.75,29.62,12,4,18,0.00
2013-12-26,58,41,30,38,34,29,95,76,46,29.80,29.67,7,3,8,0.00
2013-12-27,62,46,34,41,36,31,92,68,38,29.80,29.67,6,2,12,0.00
2013-12-28,62,48,39,41,38,34,91,68,41,29.67,29.33,12,4,15,0.00
2013-12-29,54,40,31,42,32,23,79,72,62,29.62,29.30,18,7,20,0.00
2013-12-30,48,35,27,26,21,17,78,58,37,29.76,29.59,12,4,14,0.00
2013-12-31,56,40,27,29,24,18,80,56,30,29.78,29.56,10,4,14,0.00
2014-1-1,67,47,33,50,37,26,88,69,47,29.56,29.23,26,9,30,0.00
2014-1-2,46,32,23,26,19,16,77,59,33,29.81,29.52,22,8,28,0.00